| time (UTC) | temp F | wind direction | speed MPH | gust MPH | rain 1hr in | rain 24hr in | rain mn in | humidity % | barometer mb |
| 20260510201838 | 75 | 15 | 0.0 | 0.0 | 0.00 | 0.00 | 0.00 | 50 | 1019.7 |
| 20260510201335 | 75 | 62 | 0.0 | 1.0 | 0.00 | 0.00 | 0.00 | 48 | 1019.5 |
| 20260510200832 | 73 | 336 | 0.0 | 0.0 | 0.00 | 0.00 | 0.00 | 51 | 1019.5 |
| 20260510200330 | 74 | 11 | 3.0 | 3.0 | 0.00 | 0.00 | 0.00 | 48 | 1019.6 |
| 20260510195825 | 75 | 110 | 0.0 | 0.0 | 0.00 | 0.00 | 0.00 | 48 | 1019.5 |
| 20260510195322 | 75 | 22 | 5.0 | 8.0 | 0.00 | 0.00 | 0.00 | 45 | 1019.7 |
| 20260510194817 | 75 | 12 | 1.0 | 2.0 | 0.00 | 0.00 | 0.00 | 49 | 1019.6 |
| 20260510194314 | 75 | 278 | 0.0 | 0.0 | 0.00 | 0.00 | 0.00 | 45 | 1019.4 |
| 20260510193809 | 75 | 99 | 1.0 | 2.0 | 0.00 | 0.00 | 0.00 | 47 | 1019.6 |
| 20260510193304 | 75 | 188 | 0.0 | 0.0 | 0.00 | 0.00 | 0.00 | 46 | 1019.6 |
| 20260510192801 | 75 | 32 | 3.0 | 5.0 | 0.00 | 0.00 | 0.00 | 47 | 1019.6 |
| 20260510192256 | 75 | 326 | 3.0 | 5.0 | 0.00 | 0.00 | 0.00 | 46 | 1019.4 |
| 20260510191752 | 74 | 350 | 1.0 | 2.0 | 0.00 | 0.00 | 0.00 | 46 | 1019.5 |
| 20260510191248 | 74 | 63 | 2.0 | 5.0 | 0.00 | 0.00 | 0.00 | 47 | 1019.7 |
| 20260510190746 | 74 | 357 | 1.0 | 2.0 | 0.00 | 0.00 | 0.00 | 46 | 1019.6 |
| 20260510190243 | 73 | 321 | 0.0 | 0.0 | 0.00 | 0.00 | 0.00 | 49 | 1019.7 |
| 20260510185739 | 74 | 322 | 5.0 | 7.0 | 0.00 | 0.00 | 0.00 | 46 | 1019.6 |
| 20260510185238 | 74 | 269 | 0.0 | 0.0 | 0.00 | 0.00 | 0.00 | 53 | 1019.6 |
| 20260510184734 | 74 | 281 | 0.0 | 1.0 | 0.00 | 0.00 | 0.00 | 51 | 1019.6 |
| 20260510184231 | 74 | 310 | 0.0 | 0.0 | 0.00 | 0.00 | 0.00 | 50 | 1019.6 |
| 20260510183726 | 73 | 204 | 0.0 | 0.0 | 0.00 | 0.00 | 0.00 | 49 | 1019.6 |
| 20260510183221 | 74 | 99 | 2.0 | 5.0 | 0.00 | 0.00 | 0.00 | 45 | 1019.6 |
| 20260510182717 | 74 | 251 | 0.0 | 0.0 | 0.00 | 0.00 | 0.00 | 46 | 1019.5 |
| 20260510182213 | 74 | 174 | 0.0 | 0.0 | 0.00 | 0.00 | 0.00 | 46 | 1019.3 |
| 20260510181710 | 74 | 50 | 1.0 | 2.0 | 0.00 | 0.00 | 0.00 | 48 | 1019.4 |
| 20260510181207 | 74 | 4 | 0.0 | 0.0 | 0.00 | 0.00 | 0.00 | 46 | 1019.4 |
| 20260510180703 | 73 | 63 | 0.0 | 2.0 | 0.00 | 0.00 | 0.00 | 48 | 1019.4 |
| 20260510180201 | 74 | 26 | 0.0 | 0.0 | 0.00 | 0.00 | 0.00 | 49 | 1019.4 |
| 20260510175656 | 74 | 140 | 1.0 | 2.0 | 0.00 | 0.00 | 0.00 | 50 | 1019.4 |
| 20260510175152 | 74 | 289 | 2.0 | 5.0 | 0.00 | 0.00 | 0.00 | 52 | 1019.1 |
| 20260510174650 | 73 | 293 | 0.0 | 0.0 | 0.00 | 0.00 | 0.00 | 52 | 1019.3 |
| 20260510174148 | 73 | 47 | 1.0 | 3.0 | 0.00 | 0.00 | 0.00 | 51 | 1019.6 |
| 20260510173643 | 72 | 96 | 2.0 | 5.0 | 0.00 | 0.00 | 0.00 | 53 | 1019.2 |
| 20260510173139 | 72 | 282 | 1.0 | 2.0 | 0.00 | 0.00 | 0.00 | 55 | 1019.3 |
| 20260510172635 | 71 | 311 | 2.0 | 3.0 | 0.00 | 0.00 | 0.00 | 56 | 1019.3 |
| 20260510172131 | 71 | 16 | 3.0 | 5.0 | 0.00 | 0.00 | 0.00 | 55 | 1019.4 |
| 20260510171628 | 71 | 14 | 0.0 | 1.0 | 0.00 | 0.00 | 0.00 | 56 | 1019.4 |
| 20260510171126 | 72 | 29 | 1.0 | 2.0 | 0.00 | 0.00 | 0.00 | 56 | 1019.3 |
| 20260510170622 | 72 | 34 | 1.0 | 1.0 | 0.00 | 0.00 | 0.00 | 53 | 1019.5 |
| 20260510170119 | 71 | 0 | 7.0 | 9.0 | 0.00 | 0.00 | 0.00 | 55 | 1019.3 |
| 20260510165614 | 72 | 149 | 3.0 | 7.0 | 0.00 | 0.00 | 0.00 | 56 | 1019.4 |
| 20260510165110 | 71 | 359 | 0.0 | 0.0 | 0.00 | 0.00 | 0.00 | 60 | 1019.7 |
| 20260510164608 | 71 | 356 | 0.0 | 0.0 | 0.00 | 0.00 | 0.00 | 61 | 1019.8 |
| 20260510164104 | 70 | 329 | 4.0 | 7.0 | 0.00 | 0.00 | 0.00 | 59 | 1019.8 |
| 20260510163559 | 70 | 247 | 0.0 | 0.0 | 0.00 | 0.00 | 0.00 | 61 | 1019.7 |
| 20260510163056 | 70 | 283 | 1.0 | 2.0 | 0.00 | 0.00 | 0.00 | 62 | 1019.9 |
| 20260510162551 | 70 | 23 | 1.0 | 3.0 | 0.00 | 0.00 | 0.00 | 63 | 1019.6 |
| 20260510162048 | 71 | 107 | 1.0 | 2.0 | 0.00 | 0.00 | 0.00 | 65 | 1019.8 |
| 20260510161543 | 70 | 256 | 0.0 | 0.0 | 0.00 | 0.00 | 0.00 | 66 | 1019.2 |
| 20260510161041 | 69 | 336 | 1.0 | 2.0 | 0.00 | 0.00 | 0.00 | 68 | 1019.5 |
| 20260510160537 | 69 | 27 | 0.0 | 0.0 | 0.00 | 0.00 | 0.00 | 71 | 1019.6 |
| 20260510160037 | 69 | 302 | 0.0 | 0.0 | 0.00 | 0.00 | 0.00 | 71 | 1019.4 |
| 20260510155533 | 69 | 10 | 1.0 | 2.0 | 0.00 | 0.00 | 0.00 | 71 | 1019.4 |
| 20260510155030 | 70 | 284 | 2.0 | 2.0 | 0.00 | 0.00 | 0.00 | 73 | 1019.3 |
| 20260510154526 | 69 | 283 | 0.0 | 0.0 | 0.00 | 0.00 | 0.00 | 73 | 1019.2 |
| 20260510154021 | 68 | 296 | 0.0 | 0.0 | 0.00 | 0.00 | 0.00 | 73 | 1019.4 |
| 20260510153516 | 69 | 327 | 0.0 | 0.0 | 0.00 | 0.00 | 0.00 | 73 | 1019.0 |
| 20260510153013 | 70 | 7 | 1.0 | 3.0 | 0.00 | 0.00 | 0.00 | 73 | 1019.0 |
| 20260510152511 | 70 | 268 | 0.0 | 0.0 | 0.00 | 0.00 | 0.00 | 73 | 1019.0 |
| 20260510152007 | 69 | 265 | 0.0 | 0.0 | 0.00 | 0.00 | 0.00 | 74 | 1018.8 |
| 20260510151504 | 70 | 326 | 3.0 | 3.0 | 0.00 | 0.00 | 0.00 | 71 | 1018.7 |
| 20260510151001 | 70 | 351 | 0.0 | 0.0 | 0.00 | 0.00 | 0.00 | 73 | 1018.7 |
| 20260510150456 | 69 | 271 | 0.0 | 0.0 | 0.00 | 0.00 | 0.00 | 74 | 1018.6 |
| 20260510145952 | 69 | 56 | 3.0 | 5.0 | 0.00 | 0.00 | 0.00 | 73 | 1018.5 |
| 20260510145449 | 69 | 52 | 1.0 | 1.0 | 0.00 | 0.00 | 0.00 | 74 | 1018.7 |
| 20260510144945 | 69 | 332 | 1.0 | 2.0 | 0.00 | 0.00 | 0.00 | 73 | 1018.4 |
| 20260510144442 | 69 | 292 | 0.0 | 0.0 | 0.00 | 0.00 | 0.00 | 74 | 1018.5 |
| 20260510143937 | 69 | 12 | 0.0 | 0.0 | 0.00 | 0.00 | 0.00 | 75 | 1018.5 |
| 20260510143433 | 69 | 330 | 0.0 | 0.0 | 0.00 | 0.00 | 0.00 | 75 | 1018.6 |
| 20260510142931 | 68 | 256 | 0.0 | 0.0 | 0.00 | 0.00 | 0.00 | 76 | 1018.1 |
| 20260510142427 | 69 | 267 | 2.0 | 3.0 | 0.00 | 0.00 | 0.00 | 76 | 1018.4 |
| 20260510141924 | 69 | 286 | 0.0 | 0.0 | 0.00 | 0.00 | 0.00 | 78 | 1018.3 |
| 20260510141420 | 68 | 295 | 0.0 | 0.0 | 0.00 | 0.00 | 0.00 | 79 | 1017.9 |
| 20260510140918 | 68 | 25 | 0.0 | 0.0 | 0.00 | 0.00 | 0.00 | 79 | 1017.9 |
| 20260510140414 | 67 | 328 | 0.0 | 0.0 | 0.00 | 0.00 | 0.00 | 79 | 1018.1 |
| 20260510135907 | 68 | 20 | 1.0 | 2.0 | 0.00 | 0.00 | 0.00 | 80 | 1018.1 |
| 20260510135404 | 67 | 347 | 0.0 | 0.0 | 0.00 | 0.00 | 0.00 | 81 | 1018.1 |
| 20260510134901 | 67 | 20 | 0.0 | 0.0 | 0.00 | 0.00 | 0.00 | 82 | 1018.0 |
| 20260510134357 | 66 | 18 | 0.0 | 1.0 | 0.00 | 0.00 | 0.00 | 81 | 1017.9 |
| 20260510133854 | 68 | 296 | 0.0 | 0.0 | 0.00 | 0.00 | 0.00 | 79 | 1017.8 |
| 20260510133350 | 68 | 28 | 0.0 | 0.0 | 0.00 | 0.00 | 0.00 | 79 | 1017.8 |
| 20260510132845 | 67 | 352 | 0.0 | 0.0 | 0.00 | 0.00 | 0.00 | 79 | 1017.8 |
| 20260510132344 | 67 | 221 | 0.0 | 0.0 | 0.00 | 0.00 | 0.00 | 79 | 1017.9 |
| 20260510131840 | 67 | 7 | 0.0 | 0.0 | 0.00 | 0.00 | 0.00 | 80 | 1017.8 |
| 20260510131338 | 66 | 290 | 0.0 | 0.0 | 0.00 | 0.00 | 0.00 | 81 | 1017.7 |
| 20260510130834 | 65 | 284 | 0.0 | 0.0 | 0.00 | 0.00 | 0.00 | 81 | 1017.7 |
| 20260510130331 | 65 | 348 | 0.0 | 0.0 | 0.00 | 0.00 | 0.00 | 80 | 1017.7 |
| 20260510125828 | 66 | 258 | 0.0 | 0.0 | 0.00 | 0.00 | 0.00 | 81 | 1017.4 |
| 20260510125324 | 64 | 313 | 0.0 | 0.0 | 0.00 | 0.00 | 0.00 | 83 | 1017.2 |
| 20260510124821 | 64 | 62 | 0.0 | 1.0 | 0.00 | 0.00 | 0.00 | 84 | 1017.5 |
| 20260510124318 | 63 | 263 | 0.0 | 0.0 | 0.00 | 0.00 | 0.00 | 86 | 1017.2 |
| 20260510123813 | 63 | 260 | 0.0 | 0.0 | 0.00 | 0.00 | 0.00 | 86 | 1017.2 |
| 20260510123309 | 62 | 248 | 0.0 | 0.0 | 0.00 | 0.00 | 0.00 | 87 | 1017.1 |
| 20260510122806 | 62 | 306 | 0.0 | 0.0 | 0.00 | 0.00 | 0.00 | 87 | 1017.3 |
| 20260510122306 | 61 | 248 | 0.0 | 0.0 | 0.00 | 0.00 | 0.00 | 87 | 1016.8 |
| 20260510121758 | 61 | 293 | 0.0 | 0.0 | 0.00 | 0.00 | 0.00 | 88 | 1017.1 |
| 20260510121256 | 61 | 248 | 0.0 | 0.0 | 0.00 | 0.00 | 0.00 | 88 | 1017.1 |
| 20260510120753 | 60 | 234 | 0.0 | 0.0 | 0.00 | 0.00 | 0.00 | 88 | 1017.1 |
| 20260510120250 | 60 | 237 | 0.0 | 0.0 | 0.00 | 0.00 | 0.00 | 88 | 1016.9 |
| 20260510115745 | 60 | 270 | 0.0 | 0.0 | 0.00 | 0.00 | 0.00 | 88 | 1017.2 |
| 20260510115244 | 59 | 292 | 0.0 | 0.0 | 0.00 | 0.00 | 0.00 | 90 | 1016.7 |
| 20260510114738 | 58 | 338 | 2.0 | 3.0 | 0.00 | 0.00 | 0.00 | 92 | 1016.6 |
| 20260510114236 | 58 | 246 | 0.0 | 0.0 | 0.00 | 0.00 | 0.00 | 91 | 1016.1 |
| 20260510113726 | 58 | 244 | 0.0 | 0.0 | 0.00 | 0.00 | 0.00 | 91 | 1015.7 |
| 20260510113223 | 59 | 244 | 0.0 | 0.0 | 0.00 | 0.00 | 0.00 | 91 | 1015.7 |
| 20260510112719 | 59 | 244 | 0.0 | 0.0 | 0.00 | 0.00 | 0.00 | 91 | 1015.9 |
| 20260510112216 | 58 | 245 | 0.0 | 0.0 | 0.00 | 0.00 | 0.00 | 91 | 1015.8 |
| 20260510111711 | 58 | 248 | 0.0 | 0.0 | 0.00 | 0.00 | 0.00 | 91 | 1015.7 |
| 20260510111208 | 58 | 285 | 0.0 | 0.0 | 0.00 | 0.00 | 0.00 | 92 | 1015.8 |
| 20260510110703 | 57 | 279 | 0.0 | 0.0 | 0.00 | 0.00 | 0.00 | 92 | 1015.6 |
| 20260510110201 | 57 | 276 | 0.0 | 0.0 | 0.00 | 0.00 | 0.00 | 92 | 1015.7 |
| 20260510105655 | 57 | 255 | 0.0 | 0.0 | 0.00 | 0.00 | 0.00 | 92 | 1015.1 |
| 20260510105150 | 57 | 250 | 0.0 | 0.0 | 0.00 | 0.00 | 0.00 | 92 | 1015.1 |
| 20260510104647 | 57 | 250 | 0.0 | 0.0 | 0.00 | 0.00 | 0.00 | 92 | 1015.2 |
| 20260510104144 | 57 | 277 | 0.0 | 0.0 | 0.00 | 0.00 | 0.00 | 92 | 1015.1 |
| 20260510103641 | 57 | 253 | 0.0 | 0.0 | 0.00 | 0.00 | 0.00 | 92 | 1015.0 |
| 20260510103137 | 57 | 245 | 0.0 | 0.0 | 0.00 | 0.00 | 0.00 | 92 | 1015.2 |
| 20260510102632 | 57 | 292 | 0.0 | 0.0 | 0.00 | 0.00 | 0.00 | 92 | 1015.3 |
| 20260510102129 | 56 | 275 | 0.0 | 0.0 | 0.00 | 0.00 | 0.00 | 92 | 1015.0 |
| 20260510101626 | 56 | 253 | 0.0 | 0.0 | 0.00 | 0.00 | 0.00 | 92 | 1014.9 |
| 20260510101124 | 56 | 242 | 0.0 | 0.0 | 0.00 | 0.00 | 0.00 | 92 | 1014.7 |
| 20260510100620 | 56 | 256 | 0.0 | 0.0 | 0.00 | 0.00 | 0.00 | 91 | 1014.8 |
| 20260510100118 | 56 | 256 | 0.0 | 0.0 | 0.00 | 0.00 | 0.00 | 91 | 1015.0 |
| 20260510095613 | 56 | 256 | 0.0 | 0.0 | 0.00 | 0.00 | 0.00 | 91 | 1014.8 |
| 20260510095113 | 56 | 256 | 0.0 | 0.0 | 0.00 | 0.00 | 0.00 | 90 | 1014.8 |
| 20260510094612 | 56 | 256 | 0.0 | 0.0 | 0.00 | 0.00 | 0.00 | 90 | 1014.9 |
| 20260510094108 | 56 | 260 | 0.0 | 0.0 | 0.00 | 0.00 | 0.00 | 90 | 1015.0 |
| 20260510093605 | 57 | 267 | 0.0 | 0.0 | 0.00 | 0.00 | 0.00 | 90 | 1015.0 |
| 20260510093102 | 57 | 290 | 0.0 | 0.0 | 0.00 | 0.00 | 0.00 | 90 | 1014.9 |
| 20260510092558 | 57 | 264 | 0.0 | 0.0 | 0.00 | 0.00 | 0.00 | 88 | 1015.1 |
| 20260510092058 | 58 | 262 | 0.0 | 0.0 | 0.00 | 0.00 | 0.00 | 88 | 1015.0 |
| 20260510091555 | 58 | 261 | 0.0 | 0.0 | 0.00 | 0.00 | 0.00 | 87 | 1015.0 |
| 20260510091051 | 58 | 261 | 0.0 | 0.0 | 0.00 | 0.00 | 0.00 | 86 | 1015.0 |
| 20260510090548 | 58 | 258 | 0.0 | 0.0 | 0.00 | 0.00 | 0.00 | 86 | 1015.3 |
| 20260510090044 | 58 | 268 | 0.0 | 0.0 | 0.00 | 0.00 | 0.00 | 85 | 1014.9 |
| 20260510085539 | 58 | 268 | 0.0 | 0.0 | 0.00 | 0.00 | 0.00 | 85 | 1014.8 |
| 20260510085035 | 59 | 258 | 0.0 | 0.0 | 0.00 | 0.00 | 0.00 | 83 | 1014.9 |
| 20260510084532 | 59 | 266 | 0.0 | 0.0 | 0.00 | 0.00 | 0.00 | 83 | 1014.7 |
| 20260510084029 | 59 | 281 | 0.0 | 0.0 | 0.00 | 0.00 | 0.00 | 82 | 1014.7 |
| 20260510083525 | 59 | 275 | 0.0 | 0.0 | 0.00 | 0.00 | 0.00 | 81 | 1014.8 |
| 20260510083021 | 60 | 256 | 0.0 | 0.0 | 0.00 | 0.00 | 0.00 | 80 | 1014.6 |
| 20260510082518 | 60 | 258 | 0.0 | 0.0 | 0.00 | 0.00 | 0.00 | 79 | 1014.5 |
| 20260510082013 | 60 | 307 | 0.0 | 0.0 | 0.00 | 0.00 | 0.00 | 78 | 1014.8 |
| 20260510081508 | 61 | 240 | 0.0 | 0.0 | 0.00 | 0.00 | 0.00 | 78 | 1015.1 |
| 20260510081005 | 62 | 243 | 0.0 | 0.0 | 0.00 | 0.00 | 0.00 | 76 | 1014.8 |
| 20260510080503 | 62 | 221 | 0.0 | 0.0 | 0.00 | 0.00 | 0.00 | 75 | 1014.7 |
| 20260510080001 | 63 | 312 | 0.0 | 0.0 | 0.00 | 0.00 | 0.00 | 73 | 1014.8 |
| 20260510075458 | 63 | 271 | 0.0 | 0.0 | 0.00 | 0.00 | 0.00 | 71 | 1014.6 |
| 20260510074954 | 64 | 262 | 0.0 | 0.0 | 0.00 | 0.00 | 0.00 | 70 | 1014.7 |
| 20260510074452 | 64 | 262 | 0.0 | 0.0 | 0.00 | 0.00 | 0.00 | 71 | 1014.6 |
| 20260510073948 | 64 | 326 | 0.0 | 0.0 | 0.00 | 0.00 | 0.00 | 70 | 1014.6 |
| 20260510073443 | 64 | 281 | 0.0 | 0.0 | 0.00 | 0.00 | 0.00 | 71 | 1014.6 |
| 20260510072940 | 63 | 349 | 1.0 | 2.0 | 0.00 | 0.00 | 0.00 | 72 | 1014.6 |
| 20260510072437 | 63 | 246 | 0.0 | 0.0 | 0.00 | 0.00 | 0.00 | 72 | 1014.3 |
| 20260510071933 | 63 | 265 | 0.0 | 1.0 | 0.00 | 0.00 | 0.00 | 73 | 1014.3 |
| 20260510071429 | 60 | 304 | 3.0 | 6.0 | 0.00 | 0.00 | 0.00 | 80 | 1014.9 |
| 20260510070927 | 59 | 288 | 0.0 | 0.0 | 0.00 | 0.00 | 0.00 | 81 | 1013.9 |
| 20260510070425 | 60 | 262 | 0.0 | 0.0 | 0.00 | 0.00 | 0.00 | 79 | 1013.8 |
| 20260510065920 | 60 | 262 | 0.0 | 0.0 | 0.00 | 0.00 | 0.00 | 77 | 1013.9 |
| 20260510065417 | 60 | 261 | 0.0 | 0.0 | 0.00 | 0.00 | 0.00 | 76 | 1013.8 |
| 20260510064913 | 61 | 262 | 0.0 | 0.0 | 0.00 | 0.00 | 0.00 | 76 | 1013.9 |
| 20260510064411 | 61 | 262 | 0.0 | 0.0 | 0.00 | 0.00 | 0.00 | 75 | 1013.9 |
| 20260510063907 | 61 | 262 | 0.0 | 0.0 | 0.00 | 0.00 | 0.00 | 74 | 1014.1 |
| 20260510063403 | 62 | 261 | 0.0 | 0.0 | 0.00 | 0.00 | 0.00 | 71 | 1014.1 |
| 20260510062901 | 62 | 271 | 0.0 | 0.0 | 0.00 | 0.00 | 0.00 | 70 | 1014.2 |
| 20260510062356 | 63 | 272 | 0.0 | 0.0 | 0.00 | 0.00 | 0.00 | 68 | 1014.0 |
| 20260510061852 | 64 | 271 | 0.0 | 0.0 | 0.00 | 0.00 | 0.00 | 68 | 1014.2 |
| 20260510061348 | 64 | 276 | 0.0 | 0.0 | 0.00 | 0.00 | 0.00 | 66 | 1013.8 |
| 20260510060844 | 65 | 274 | 0.0 | 0.0 | 0.00 | 0.00 | 0.00 | 65 | 1013.9 |
| 20260510060341 | 65 | 268 | 0.0 | 0.0 | 0.00 | 0.00 | 0.00 | 63 | 1013.8 |
| 20260510055837 | 66 | 264 | 0.0 | 0.0 | 0.00 | 0.09 | 0.09 | 62 | 1013.9 |
| 20260510055336 | 66 | 267 | 0.0 | 0.0 | 0.00 | 0.09 | 0.09 | 62 | 1013.7 |
| 20260510054831 | 66 | 251 | 0.0 | 0.0 | 0.00 | 0.09 | 0.09 | 63 | 1013.6 |
| 20260510054327 | 64 | 198 | 0.0 | 0.0 | 0.00 | 0.09 | 0.09 | 64 | 1013.6 |
| 20260510053822 | 64 | 278 | 0.0 | 0.0 | 0.00 | 0.09 | 0.09 | 68 | 1013.7 |
| 20260510053317 | 62 | 214 | 0.0 | 0.0 | 0.00 | 0.09 | 0.09 | 71 | 1013.8 |
| 20260510052814 | 62 | 257 | 0.0 | 0.0 | 0.00 | 0.09 | 0.09 | 73 | 1013.9 |
| 20260510052310 | 61 | 260 | 0.0 | 0.0 | 0.00 | 0.09 | 0.09 | 74 | 1013.8 |
| 20260510051806 | 61 | 273 | 0.0 | 0.0 | 0.00 | 0.09 | 0.09 | 77 | 1013.5 |
| 20260510051303 | 61 | 316 | 0.0 | 0.0 | 0.00 | 0.09 | 0.09 | 80 | 1013.4 |
| 20260510050800 | 61 | 272 | 0.0 | 0.0 | 0.00 | 0.09 | 0.09 | 80 | 1013.4 |
| 20260510050257 | 62 | 252 | 0.0 | 0.0 | 0.00 | 0.09 | 0.09 | 78 | 1013.7 |
| 20260510045754 | 62 | 140 | 0.0 | 0.0 | 0.00 | 0.09 | 0.09 | 79 | 1013.7 |
| 20260510045250 | 62 | 272 | 0.0 | 0.0 | 0.00 | 0.09 | 0.09 | 80 | 1013.6 |
| 20260510044747 | 62 | 286 | 0.0 | 0.0 | 0.00 | 0.09 | 0.09 | 80 | 1013.5 |
| 20260510044245 | 62 | 290 | 0.0 | 0.0 | 0.00 | 0.09 | 0.09 | 79 | 1013.5 |
| 20260510043740 | 62 | 275 | 0.0 | 0.0 | 0.00 | 0.09 | 0.09 | 79 | 1013.5 |
| 20260510043237 | 62 | 251 | 0.0 | 0.0 | 0.00 | 0.09 | 0.09 | 79 | 1013.4 |
| 20260510042735 | 62 | 183 | 0.0 | 0.0 | 0.00 | 0.09 | 0.09 | 79 | 1013.5 |
| 20260510042230 | 62 | 265 | 0.0 | 0.0 | 0.00 | 0.09 | 0.09 | 79 | 1013.5 |
| 20260510041727 | 62 | 287 | 0.0 | 0.0 | 0.00 | 0.09 | 0.09 | 79 | 1013.7 |
| 20260510041224 | 62 | 254 | 0.0 | 0.0 | 0.00 | 0.09 | 0.09 | 79 | 1013.7 |
| 20260510040721 | 63 | 242 | 0.0 | 0.0 | 0.00 | 0.09 | 0.09 | 78 | 1013.4 |
| 20260510040218 | 63 | 234 | 0.0 | 0.0 | 0.00 | 0.09 | 0.09 | 77 | 1013.5 |
| 20260510035713 | 64 | 201 | 0.0 | 0.0 | 0.00 | 0.09 | 0.09 | 76 | 1013.3 |
| 20260510035210 | 65 | 237 | 0.0 | 0.0 | 0.00 | 0.09 | 0.09 | 76 | 1013.4 |
| 20260510034705 | 65 | 229 | 0.0 | 0.0 | 0.00 | 0.09 | 0.09 | 74 | 1013.4 |
| 20260510034203 | 66 | 62 | 0.0 | 0.0 | 0.00 | 0.09 | 0.09 | 71 | 1013.5 |
| 20260510033659 | 68 | 133 | 0.0 | 0.0 | 0.00 | 0.09 | 0.09 | 66 | 1013.2 |
| 20260510033157 | 68 | 232 | 0.0 | 0.0 | 0.00 | 0.09 | 0.09 | 66 | 1013.3 |
| 20260510032653 | 69 | 222 | 0.0 | 0.0 | 0.00 | 0.09 | 0.09 | 64 | 1013.4 |
| 20260510032149 | 69 | 191 | 0.0 | 0.0 | 0.00 | 0.09 | 0.09 | 62 | 1013.1 |
| 20260510031643 | 68 | 228 | 0.0 | 0.0 | 0.00 | 0.09 | 0.09 | 63 | 1013.5 |
| 20260510031141 | 67 | 205 | 0.0 | 0.0 | 0.00 | 0.09 | 0.09 | 66 | 1013.2 |
| 20260510030635 | 66 | 229 | 0.0 | 0.0 | 0.00 | 0.09 | 0.09 | 69 | 1013.2 |
| 20260510030133 | 66 | 232 | 0.0 | 0.0 | 0.00 | 0.09 | 0.09 | 72 | 1013.1 |
| 20260510025630 | 66 | 160 | 0.0 | 0.0 | 0.00 | 0.09 | 0.09 | 71 | 1013.1 |
| 20260510025127 | 65 | 237 | 0.0 | 0.0 | 0.00 | 0.09 | 0.09 | 72 | 1013.0 |
| 20260510024624 | 66 | 238 | 0.0 | 0.0 | 0.00 | 0.09 | 0.09 | 72 | 1013.1 |
| 20260510024120 | 66 | 228 | 0.0 | 0.0 | 0.00 | 0.09 | 0.09 | 71 | 1013.2 |
| 20260510023616 | 66 | 223 | 0.0 | 0.0 | 0.00 | 0.09 | 0.09 | 72 | 1013.0 |
| 20260510023114 | 67 | 231 | 0.0 | 0.0 | 0.00 | 0.09 | 0.09 | 72 | 1013.0 |
| 20260510022613 | 66 | 223 | 0.0 | 0.0 | 0.00 | 0.09 | 0.09 | 70 | 1013.0 |
| 20260510022108 | 65 | 221 | 0.0 | 0.0 | 0.00 | 0.09 | 0.09 | 75 | 1012.7 |
| 20260510021604 | 64 | 248 | 0.0 | 0.0 | 0.00 | 0.09 | 0.09 | 75 | 1012.8 |
| 20260510021102 | 65 | 248 | 0.0 | 0.0 | 0.00 | 0.09 | 0.09 | 75 | 1012.8 |
| 20260510020556 | 66 | 236 | 0.0 | 0.0 | 0.00 | 0.09 | 0.09 | 74 | 1012.9 |
| 20260510020052 | 66 | 230 | 0.0 | 0.0 | 0.00 | 0.09 | 0.09 | 73 | 1012.8 |
| 20260510015548 | 67 | 228 | 0.0 | 0.0 | 0.00 | 0.09 | 0.09 | 71 | 1012.7 |
| 20260510015044 | 68 | 227 | 0.0 | 0.0 | 0.00 | 0.09 | 0.09 | 69 | 1012.8 |
| 20260510014540 | 68 | 213 | 0.0 | 0.0 | 0.00 | 0.09 | 0.09 | 67 | 1012.5 |
| 20260510014038 | 68 | 242 | 0.0 | 0.0 | 0.00 | 0.09 | 0.09 | 68 | 1012.3 |
| 20260510013532 | 69 | 244 | 0.0 | 0.0 | 0.00 | 0.09 | 0.09 | 68 | 1012.5 |
| 20260510013028 | 69 | 222 | 0.0 | 0.0 | 0.00 | 0.09 | 0.09 | 68 | 1012.4 |
| 20260510012522 | 70 | 223 | 0.0 | 0.0 | 0.00 | 0.09 | 0.09 | 63 | 1012.4 |
| 20260510012019 | 71 | 222 | 0.0 | 0.0 | 0.00 | 0.09 | 0.09 | 63 | 1012.4 |
| 20260510011519 | 71 | 221 | 0.0 | 0.0 | 0.00 | 0.09 | 0.09 | 60 | 1012.1 |
| 20260510011014 | 71 | 224 | 0.0 | 0.0 | 0.00 | 0.09 | 0.09 | 59 | 1012.1 |
| 20260510010512 | 72 | 223 | 0.0 | 0.0 | 0.00 | 0.09 | 0.09 | 60 | 1011.9 |
| 20260510010008 | 73 | 229 | 0.0 | 0.0 | 0.00 | 0.09 | 0.09 | 58 | 1011.9 |
| 20260510005504 | 74 | 225 | 0.0 | 0.0 | 0.00 | 0.09 | 0.09 | 56 | 1011.9 |
| 20260510005002 | 75 | 225 | 0.0 | 0.0 | 0.00 | 0.09 | 0.09 | 56 | 1011.8 |
| 20260510004459 | 75 | 203 | 0.0 | 0.0 | 0.00 | 0.09 | 0.09 | 54 | 1011.6 |
| 20260510003957 | 76 | 208 | 0.0 | 0.0 | 0.00 | 0.09 | 0.09 | 52 | 1011.6 |
| 20260510003453 | 77 | 216 | 0.0 | 0.0 | 0.00 | 0.09 | 0.09 | 51 | 1011.8 |
| 20260510002949 | 78 | 204 | 0.0 | 0.0 | 0.00 | 0.09 | 0.09 | 50 | 1011.6 |
| 20260510002445 | 79 | 214 | 0.0 | 0.0 | 0.00 | 0.09 | 0.09 | 49 | 1011.7 |
| 20260510001941 | 79 | 172 | 0.0 | 0.0 | 0.00 | 0.09 | 0.09 | 48 | 1011.4 |
| 20260510001439 | 80 | 215 | 0.0 | 0.0 | 0.00 | 0.09 | 0.09 | 48 | 1011.6 |
| 20260510000936 | 80 | 199 | 0.0 | 0.0 | 0.00 | 0.09 | 0.09 | 48 | 1011.3 |
| 20260510000427 | 80 | 213 | 0.0 | 0.0 | 0.00 | 0.09 | 0.09 | 48 | 1011.4 |
| 20260509235923 | 80 | 215 | 0.0 | 0.0 | 0.00 | 0.09 | 0.09 | 47 | 1011.3 |
| 20260509235420 | 80 | 203 | 0.0 | 0.0 | 0.00 | 0.09 | 0.09 | 47 | 1011.1 |
| 20260509234916 | 80 | 222 | 0.0 | 0.0 | 0.00 | 0.09 | 0.09 | 48 | 1011.1 |
| 20260509234414 | 80 | 208 | 0.0 | 0.0 | 0.00 | 0.09 | 0.09 | 47 | 1011.2 |
| 20260509233912 | 80 | 187 | 0.0 | 0.0 | 0.00 | 0.09 | 0.09 | 48 | 1011.2 |
| 20260509233409 | 80 | 202 | 0.0 | 0.0 | 0.00 | 0.09 | 0.09 | 46 | 1011.2 |
| 20260509232904 | 80 | 205 | 0.0 | 1.0 | 0.00 | 0.09 | 0.09 | 46 | 1011.1 |
| 20260509232403 | 80 | 221 | 0.0 | 0.0 | 0.00 | 0.09 | 0.09 | 45 | 1011.1 |
| 20260509231858 | 81 | 191 | 2.0 | 3.0 | 0.00 | 0.09 | 0.09 | 44 | 1011.1 |
| 20260509231355 | 81 | 202 | 0.0 | 0.0 | 0.00 | 0.09 | 0.09 | 44 | 1011.2 |
| 20260509230853 | 82 | 202 | 0.0 | 1.0 | 0.00 | 0.09 | 0.09 | 44 | 1011.1 |
| 20260509230350 | 81 | 177 | 0.0 | 0.0 | 0.00 | 0.09 | 0.09 | 44 | 1011.1 |
| 20260509225845 | 81 | 199 | 0.0 | 0.0 | 0.00 | 0.09 | 0.09 | 45 | 1010.9 |
| 20260509225342 | 81 | 172 | 2.0 | 3.0 | 0.00 | 0.09 | 0.09 | 45 | 1011.2 |
| 20260509224838 | 82 | 172 | 0.0 | 1.0 | 0.00 | 0.09 | 0.09 | 47 | 1011.0 |
| 20260509224334 | 82 | 243 | 0.0 | 0.0 | 0.00 | 0.09 | 0.09 | 44 | 1011.0 |
| 20260509223831 | 83 | 176 | 2.0 | 5.0 | 0.00 | 0.09 | 0.09 | 42 | 1011.3 |
| 20260509223328 | 83 | 267 | 0.0 | 0.0 | 0.00 | 0.09 | 0.09 | 44 | 1011.2 |
| 20260509222825 | 82 | 254 | 0.0 | 0.0 | 0.00 | 0.09 | 0.09 | 44 | 1011.3 |
| 20260509222320 | 81 | 276 | 0.0 | 0.0 | 0.00 | 0.09 | 0.09 | 43 | 1011.3 |
| 20260509221816 | 83 | 186 | 1.0 | 2.0 | 0.00 | 0.09 | 0.09 | 44 | 1011.1 |
| 20260509221314 | 82 | 245 | 0.0 | 0.0 | 0.00 | 0.09 | 0.09 | 43 | 1011.2 |
| 20260509220808 | 83 | 261 | 0.0 | 1.0 | 0.00 | 0.09 | 0.09 | 43 | 1011.3 |
| 20260509220305 | 82 | 204 | 0.0 | 0.0 | 0.00 | 0.09 | 0.09 | 45 | 1011.1 |
| 20260509215800 | 82 | 206 | 3.0 | 6.0 | 0.00 | 0.09 | 0.09 | 44 | 1011.1 |
| 20260509215257 | 82 | 209 | 0.0 | 1.0 | 0.00 | 0.09 | 0.09 | 43 | 1010.8 |
| 20260509214754 | 82 | 168 | 0.0 | 0.0 | 0.00 | 0.09 | 0.09 | 42 | 1011.0 |
| 20260509214251 | 82 | 215 | 0.0 | 0.0 | 0.00 | 0.09 | 0.09 | 44 | 1011.1 |
| 20260509213748 | 83 | 280 | 1.0 | 2.0 | 0.00 | 0.09 | 0.09 | 41 | 1011.2 |
| 20260509213243 | 83 | 204 | 0.0 | 0.0 | 0.00 | 0.09 | 0.09 | 43 | 1011.1 |
| 20260509212741 | 83 | 148 | 0.0 | 0.0 | 0.00 | 0.09 | 0.09 | 41 | 1010.9 |
| 20260509212238 | 83 | 202 | 2.0 | 3.0 | 0.00 | 0.09 | 0.09 | 40 | 1011.0 |
| 20260509211734 | 83 | 284 | 1.0 | 3.0 | 0.00 | 0.09 | 0.09 | 40 | 1011.0 |
| 20260509211230 | 83 | 197 | 0.0 | 0.0 | 0.00 | 0.09 | 0.09 | 46 | 1011.2 |
| 20260509210727 | 83 | 203 | 0.0 | 0.0 | 0.00 | 0.09 | 0.09 | 42 | 1011.1 |
| 20260509210224 | 84 | 197 | 0.0 | 1.0 | 0.00 | 0.09 | 0.09 | 45 | 1011.0 |
| 20260509205719 | 82 | 239 | 0.0 | 0.0 | 0.00 | 0.09 | 0.09 | 46 | 1011.1 |
| 20260509205219 | 82 | 236 | 1.0 | 2.0 | 0.00 | 0.09 | 0.09 | 44 | 1011.2 |
| 20260509204715 | 81 | 229 | 0.0 | 0.0 | 0.00 | 0.09 | 0.09 | 47 | 1011.1 |
| 20260509204211 | 82 | 180 | 1.0 | 2.0 | 0.00 | 0.09 | 0.09 | 47 | 1011.5 |
| 20260509203707 | 82 | 174 | 0.0 | 0.0 | 0.00 | 0.09 | 0.09 | 49 | 1011.2 |
| 20260509203206 | 81 | 222 | 0.0 | 0.0 | 0.00 | 0.09 | 0.09 | 51 | 1011.2 |
| 20260509202701 | 80 | 213 | 0.0 | 0.0 | 0.00 | 0.09 | 0.09 | 55 | 1011.5 |
| 20260509202156 | 80 | 209 | 0.0 | 0.0 | 0.00 | 0.09 | 0.09 | 54 | 1011.7 |